Time;durP1;ratioP1;P1;durP2;ratioP2;P2;SDS_P1;SDS_P2;PMS_P1;PMS_P2;Temp;Humidity;BMP_temperature;BMP_pressure;BME280_temperature;BME280_humidity;BME280_pressure;Samples;Min_cycle;Max_cycle;Signal;HPM_P1;HPM_P2
2022/04/26 03:36:12;;;;;;;5.18;3.10;;;;;;;7.51;59.83;100681.75;2055714;28;20293;-71
2022/04/26 03:37:20;;;;;;;6.13;3.03;;;;;;;7.55;59.88;100684.72;2055839;28;20302;-70
2022/04/26 03:38:23;;;;;;;7.30;3.33;;;;;;;7.57;59.54;100686.06;2056074;28;20791;-72
2022/04/26 03:39:28;;;;;;;4.78;2.75;;;;;;;7.66;59.55;100684.53;2057123;28;20323;-71
2022/04/26 03:40:30;;;;;;;8.95;2.92;;;;;;;7.74;59.22;100688.59;2058060;28;20290;-71
2022/04/26 03:41:37;;;;;;;7.03;2.97;;;;;;;7.81;59.19;100691.06;2065605;28;20281;-71
2022/04/26 03:42:39;;;;;;;6.28;2.75;;;;;;;7.83;59.17;100686.28;2064395;28;20292;-71
2022/04/26 03:43:41;;;;;;;4.78;2.83;;;;;;;7.89;58.80;100694.06;2063834;28;20293;-71
2022/04/26 03:44:48;;;;;;;4.07;2.72;;;;;;;7.98;58.78;100694.41;2056093;28;20278;-71
2022/04/26 03:45:50;;;;;;;4.40;2.72;;;;;;;8.06;58.56;100693.91;2059466;28;20296;-70
2022/04/26 03:46:53;;;;;;;3.90;2.40;;;;;;;8.11;58.47;100696.63;2055624;28;20306;-70
2022/04/26 03:47:58;;;;;;;4.95;2.60;;;;;;;8.09;57.80;100695.28;2056125;28;20683;-70
2022/04/26 03:49:00;;;;;;;4.82;2.60;;;;;;;8.12;57.78;100697.44;2063561;28;20292;-70
2022/04/26 03:50:03;;;;;;;5.05;2.42;;;;;;;8.21;57.59;100692.41;2055922;28;20313;-70
2022/04/26 03:51:08;;;;;;;5.20;2.40;;;;;;;8.31;57.49;100700.50;2061134;28;20401;-71
2022/04/26 03:52:13;;;;;;;3.63;2.20;;;;;;;8.38;56.94;100703.75;2063074;28;20815;-71
2022/04/26 03:53:18;;;;;;;9.02;2.75;;;;;;;8.43;57.17;100698.44;2055882;28;20286;-71
2022/04/26 03:54:25;;;;;;;4.43;2.40;;;;;;;8.49;56.65;100701.97;2048562;28;20287;-71
2022/04/26 03:55:29;;;;;;;7.28;2.70;;;;;;;8.55;56.35;100701.72;2055694;28;20301;-71
2022/04/26 03:56:33;;;;;;;5.32;2.47;;;;;;;8.61;56.74;100701.72;2048785;28;20290;-71
2022/04/26 03:57:38;;;;;;;7.07;2.70;;;;;;;8.70;56.50;100705.53;2056192;28;20293;-71
2022/04/26 03:58:42;;;;;;;6.10;2.97;;;;;;;8.80;55.94;100713.63;2062865;28;20307;-71
2022/04/26 03:59:47;;;;;;;5.15;2.40;;;;;;;8.87;55.94;100706.13;2064515;28;20297;-70
2022/04/26 04:00:55;;;;;;;5.70;2.90;;;;;;;8.96;56.06;100707.25;2069142;28;20304;-69
2022/04/26 04:02:00;;;;;;;5.80;2.85;;;;;;;9.10;55.73;100709.41;2065530;28;20789;-70
2022/04/26 04:03:02;;;;;;;8.48;2.97;;;;;;;9.16;55.23;100711.84;2064551;28;20289;-70
2022/04/26 04:04:10;;;;;;;5.18;2.95;;;;;;;9.23;55.16;100711.56;2064302;28;20289;-70
2022/04/26 04:05:14;;;;;;;6.13;3.20;;;;;;;9.28;54.60;100711.59;2040948;29;20299;-70
2022/04/26 04:06:17;;;;;;;6.45;2.80;;;;;;;9.30;54.74;100712.16;2049832;28;20299;-70
2022/04/26 04:07:22;;;;;;;7.25;2.80;;;;;;;9.39;54.70;100709.72;2061034;28;20278;-69
2022/04/26 04:08:26;;;;;;;4.88;2.90;;;;;;;9.47;54.39;100704.66;2056956;28;20298;-71
2022/04/26 04:09:29;;;;;;;5.75;2.70;;;;;;;9.60;54.25;100705.19;2048000;29;20287;-70
2022/04/26 04:10:45;;;;;;;4.97;2.70;;;;;;;9.69;54.03;100719.69;2043635;28;20806;-70
2022/04/26 04:11:50;;;;;;;4.28;2.50;;;;;;;9.78;53.44;100710.03;2061306;28;20286;-71
2022/04/26 04:12:52;;;;;;;6.28;2.70;;;;;;;9.88;52.82;100712.69;2048041;28;20291;-71
2022/04/26 04:13:58;;;;;;;6.10;2.67;;;;;;;10.02;52.70;100712.16;2045384;28;21120;-71
2022/04/26 04:15:06;;;;;;;7.78;2.78;;;;;;;10.15;51.96;100717.78;2048815;28;20286;-72
2022/04/26 04:16:09;;;;;;;4.95;2.45;;;;;;;10.26;51.81;100717.75;2056750;28;20794;-71
2022/04/26 04:17:19;;;;;;;5.93;2.67;;;;;;;10.38;52.20;100718.31;2050501;28;20287;-71
2022/04/26 04:19:42;;;;;;;5.55;2.40;;;;;;;10.57;51.57;100718.50;2065775;28;20293;-71
2022/04/26 04:20:49;;;;;;;5.28;2.40;;;;;;;10.69;50.31;100721.69;2061468;28;20270;-71
2022/04/26 04:21:52;;;;;;;4.38;2.22;;;;;;;10.79;50.29;100721.66;2061713;28;20282;-71
2022/04/26 04:22:55;;;;;;;4.38;2.40;;;;;;;10.88;50.09;100725.38;2055216;28;20596;-70
2022/04/26 04:24:03;;;;;;;5.10;2.42;;;;;;;11.02;50.26;100724.75;2049989;28;20294;-70
2022/04/26 04:25:09;;;;;;;3.80;2.30;;;;;;;11.20;50.00;100734.09;2057979;28;20774;-70
2022/04/26 04:26:12;;;;;;;5.22;2.40;;;;;;;11.32;49.32;100729.97;2056321;28;20731;-70
2022/04/26 04:27:16;;;;;;;10.18;3.85;;;;;;;11.45;48.76;100733.13;2056896;28;20305;-70
2022/04/26 04:28:23;;;;;;;4.13;2.25;;;;;;;11.56;48.68;100735.44;2048908;28;20310;-70
2022/04/26 04:29:28;;;;;;;3.67;2.33;;;;;;;11.73;48.40;100736.97;2047336;28;20283;-69
2022/04/26 04:30:38;;;;;;;3.80;2.45;;;;;;;11.93;47.92;100733.31;2049325;28;20290;-69
2022/04/26 04:31:41;;;;;;;3.67;2.20;;;;;;;12.05;47.60;100739.16;2048832;28;20850;-70
2022/04/26 04:32:46;;;;;;;3.50;2.13;;;;;;;12.15;47.21;100733.66;2056092;28;20298;-71
2022/04/26 04:33:51;;;;;;;3.13;1.90;;;;;;;12.29;46.69;100731.06;2063380;28;20278;-70
2022/04/26 04:34:54;;;;;;;3.17;1.98;;;;;;;12.35;46.85;100729.13;2056739;28;20282;-70
2022/04/26 04:35:58;;;;;;;3.65;2.17;;;;;;;12.42;46.61;100735.81;2056314;28;20301;-70
2022/04/26 04:37:00;;;;;;;4.05;1.75;;;;;;;12.54;46.33;100738.09;2047665;28;20294;-71
2022/04/26 04:38:05;;;;;;;6.22;3.20;;;;;;;12.72;46.17;100737.34;2040070;28;20343;-69
2022/04/26 04:39:19;;;;;;;3.67;2.00;;;;;;;12.88;45.65;100737.97;2047047;28;20310;-69
2022/04/26 04:40:22;;;;;;;3.05;1.65;;;;;;;13.00;45.22;100729.44;2057957;28;20595;-72
2022/04/26 04:41:25;;;;;;;4.50;2.33;;;;;;;13.01;44.83;100732.94;2056422;28;20291;-70
2022/04/26 04:42:29;;;;;;;4.38;2.00;;;;;;;13.10;44.79;100732.00;2063845;28;20281;-74
2022/04/26 04:43:34;;;;;;;3.58;1.90;;;;;;;13.30;44.06;100732.84;2063750;28;20669;-71
2022/04/26 04:44:42;;;;;;;3.38;2.00;;;;;;;13.40;44.32;100732.72;2053895;28;20703;-70
2022/04/26 04:45:49;;;;;;;3.78;2.10;;;;;;;13.56;44.22;100725.97;2048445;28;20989;-69
2022/04/26 04:46:54;;;;;;;4.18;2.10;;;;;;;13.70;43.26;100731.41;2054743;28;20289;-70
2022/04/26 04:47:57;;;;;;;3.28;1.95;;;;;;;13.77;42.84;100733.75;2056440;28;20635;-74
2022/04/26 04:49:04;;;;;;;3.25;1.90;;;;;;;13.93;42.41;100737.78;2055571;28;20290;-71
2022/04/26 04:50:09;;;;;;;;;;;;;;;14.06;42.60;100738.91;2049900;28;20059;-73
2022/04/26 04:51:13;;;;;;;3.55;1.90;;;;;;;14.13;42.69;100739.34;2056669;28;19926;-71
2022/04/26 04:52:16;;;;;;;3.28;1.83;;;;;;;14.18;42.45;100735.75;2056182;28;20293;-71
2022/04/26 04:53:20;;;;;;;3.58;1.85;;;;;;;14.35;42.33;100738.69;2049484;28;20294;-73
2022/04/26 04:54:23;;;;;;;3.42;2.08;;;;;;;14.48;42.02;100735.19;2045662;28;20290;-70
2022/04/26 04:55:26;;;;;;;3.53;1.88;;;;;;;14.63;41.82;100741.41;2044566;28;20094;-73
2022/04/26 04:56:31;;;;;;;3.63;2.00;;;;;;;14.80;40.99;100736.22;2046747;28;20035;-74
2022/04/26 04:57:36;;;;;;;8.98;2.30;;;;;;;14.91;40.14;100742.19;2044302;28;20070;-73
2022/04/26 04:58:38;;;;;;;15.95;2.40;;;;;;;14.92;40.15;100736.50;2055508;28;20047;-72
2022/04/26 04:59:40;;;;;;;15.95;2.25;;;;;;;15.04;40.28;100747.63;2047573;29;20118;-72
2022/04/26 05:00:42;;;;;;;12.77;3.50;;;;;;;15.18;40.57;100738.66;2047451;28;20290;-72
2022/04/26 05:01:47;;;;;;;9.48;3.78;;;;;;;15.28;40.17;100750.03;2040292;29;20048;-72
2022/04/26 05:02:52;;;;;;;8.75;3.20;;;;;;;15.46;40.07;100737.47;2041359;28;20051;-73
2022/04/26 05:04:00;;;;;;;12.23;4.15;;;;;;;15.62;39.84;100746.03;2051750;28;20050;-70
2022/04/26 05:05:07;;;;;;;13.23;4.82;;;;;;;15.80;39.44;100738.84;2053674;28;20066;-71
2022/04/26 05:06:16;;;;;;;11.32;3.40;;;;;;;16.01;38.95;100741.03;2059962;28;20057;-71
2022/04/26 05:07:20;;;;;;;9.68;4.80;;;;;;;16.19;39.29;100737.31;2058696;28;20559;-72
2022/04/26 05:08:26;;;;;;;22.90;6.15;;;;;;;16.35;38.79;100735.00;2059690;28;20379;-70
2022/04/26 05:09:27;;;;;;;22.95;7.93;;;;;;;16.52;38.86;100739.69;2051560;28;20038;-69
2022/04/26 05:10:33;;;;;;;13.85;5.65;;;;;;;16.67;38.44;100744.69;2050952;28;20054;-76
2022/04/26 05:11:36;;;;;;;10.10;4.60;;;;;;;16.89;38.38;100732.97;2057759;28;20089;-72
2022/04/26 05:12:41;;;;;;;13.05;6.00;;;;;;;17.13;38.30;100738.75;2055825;28;20105;-71
2022/04/26 05:13:48;;;;;;;;;;;;;;;17.31;36.80;100745.00;2050222;28;20035;-71
2022/04/26 05:14:51;;;;;;;4.57;2.63;;;;;;;17.41;36.35;100743.09;2057359;28;19922;-70
2022/04/26 05:15:54;;;;;;;7.00;2.70;;;;;;;17.75;35.80;100736.84;2061273;28;20360;-70
2022/04/26 05:16:55;;;;;;;6.90;2.85;;;;;;;18.19;35.09;100740.25;2047506;29;20050;-71
2022/04/26 05:17:58;;;;;;;3.53;2.13;;;;;;;18.49;34.25;100744.63;2046322;28;20062;-70
2022/04/26 05:19:03;;;;;;;5.35;2.30;;;;;;;18.74;33.57;100740.22;2048241;28;20051;-72
2022/04/26 05:20:08;;;;;;;3.90;1.83;;;;;;;18.77;33.07;100744.22;2055681;28;20073;-71
2022/04/26 05:21:12;;;;;;;7.95;2.00;;;;;;;19.06;32.66;100746.13;2047486;28;20492;-72
2022/04/26 05:22:16;;;;;;;10.18;2.35;;;;;;;19.38;32.35;100743.78;2053894;28;20050;-69
2022/04/26 05:24:58;;;;;;;8.35;2.10;;;;;;;19.96;31.12;100747.47;2064021;28;20054;-68
2022/04/26 05:26:04;;;;;;;5.93;1.75;;;;;;;20.20;31.14;100743.19;2062507;28;20566;-74
2022/04/26 05:27:14;;;;;;;2.50;2.00;;;;;;;20.32;30.55;100741.28;2063178;28;20030;-68
2022/04/26 05:28:18;;;;;;;4.35;1.90;;;;;;;20.39;30.36;100748.91;2055970;28;20058;-70
2022/04/26 05:29:24;;;;;;;2.53;1.70;;;;;;;20.46;30.15;100751.88;2056633;28;20051;-71
2022/04/26 05:30:26;;;;;;;2.42;1.67;;;;;;;20.62;30.38;100753.94;2063766;28;20514;-70
2022/04/26 05:31:34;;;;;;;2.83;1.85;;;;;;;20.84;29.36;100748.03;2047683;28;20070;-74
2022/04/26 05:32:39;;;;;;;5.45;1.90;;;;;;;20.97;29.26;100752.34;2048338;28;20051;-67
2022/04/26 05:33:44;;;;;;;3.78;1.80;;;;;;;21.21;28.91;100748.75;2055727;28;20042;-68
2022/04/26 05:34:59;;;;;;;2.35;1.60;;;;;;;21.31;28.61;100750.19;2052399;28;20255;-68
2022/04/26 05:36:04;;;;;;;3.53;1.80;;;;;;;21.39;28.34;100752.03;2061004;28;20073;-68
2022/04/26 05:37:08;;;;;;;4.75;2.03;;;;;;;21.60;28.37;100745.59;2058527;28;20671;-68
2022/04/26 05:38:15;;;;;;;8.52;2.55;;;;;;;21.90;27.98;100751.50;2050012;28;20032;-68
2022/04/26 05:39:17;;;;;;;4.88;2.20;;;;;;;22.10;27.71;100755.13;2048258;28;20059;-68
2022/04/26 05:40:22;;;;;;;4.93;2.05;;;;;;;22.29;27.59;100752.53;2041400;29;20090;-68
2022/04/26 05:41:26;;;;;;;2.42;2.00;;;;;;;22.47;27.25;100752.19;2032820;28;20055;-68
2022/04/26 05:42:31;;;;;;;5.93;1.77;;;;;;;22.60;27.10;100757.22;2042042;28;20067;-68
2022/04/26 05:43:36;;;;;;;3.65;1.98;;;;;;;22.85;26.63;100757.78;2056100;28;20490;-68
2022/04/26 05:44:42;;;;;;;3.00;1.70;;;;;;;22.93;26.30;100752.47;2048662;28;20409;-68
2022/04/26 05:45:45;;;;;;;3.65;1.80;;;;;;;23.13;25.82;100756.84;2063472;28;20097;-68
2022/04/26 05:46:47;;;;;;;3.05;1.40;;;;;;;23.36;26.02;100755.03;2063012;28;20054;-69
2022/04/26 05:47:49;;;;;;;10.00;2.40;;;;;;;23.46;25.27;100755.59;2062182;28;20037;-68
2022/04/26 05:48:53;;;;;;;3.00;1.70;;;;;;;23.71;24.77;100756.13;2046356;29;20738;-69
2022/04/26 05:49:59;;;;;;;3.75;1.70;;;;;;;24.08;24.56;100761.09;2046695;28;20035;-68
2022/04/26 05:51:04;;;;;;;7.13;2.00;;;;;;;24.29;24.48;100762.28;2054240;28;20597;-68
2022/04/26 05:52:10;;;;;;;3.72;1.85;;;;;;;24.54;24.32;100759.19;2056892;28;20042;-68
2022/04/26 05:53:15;;;;;;;4.35;1.80;;;;;;;24.87;24.33;100768.69;2046196;29;20035;-69
2022/04/26 05:54:17;;;;;;;3.95;1.75;;;;;;;25.04;23.78;100761.88;2039457;28;20060;-69
2022/04/26 05:55:20;;;;;;;3.58;1.70;;;;;;;25.41;23.02;100757.28;2038987;28;20048;-68
2022/04/26 05:56:23;;;;;;;2.22;2.00;;;;;;;25.54;22.95;100752.31;2055235;28;20165;-69
2022/04/26 05:57:28;;;;;;;2.70;1.80;;;;;;;25.59;22.78;100753.94;2057443;28;20811;-68
2022/04/26 05:58:37;;;;;;;6.75;2.00;;;;;;;26.05;22.24;100753.69;2040903;28;20696;-69
2022/04/26 05:59:44;;;;;;;4.37;1.80;;;;;;;26.21;21.67;100750.66;2040945;28;20048;-69
2022/04/26 06:00:47;;;;;;;3.00;1.70;;;;;;;26.13;22.14;100755.31;2047942;28;20291;-68
2022/04/26 06:01:51;;;;;;;5.75;1.98;;;;;;;26.25;21.44;100755.03;2039162;29;20042;-69
2022/04/26 06:02:52;;;;;;;2.22;1.63;;;;;;;26.21;22.32;100762.47;2039821;28;20035;-69
2022/04/26 06:04:00;;;;;;;2.13;1.50;;;;;;;26.61;21.97;100758.13;2059018;28;20038;-69
2022/04/26 06:05:05;;;;;;;7.85;1.77;;;;;;;26.92;21.16;100756.72;2055138;28;20639;-69
2022/04/26 06:06:11;;;;;;;3.30;2.00;;;;;;;27.25;20.74;100757.72;2055266;28;20059;-71
2022/04/26 06:07:19;;;;;;;3.42;1.80;;;;;;;27.39;20.67;100757.78;2057904;28;20050;-71
2022/04/26 06:08:23;;;;;;;4.70;2.25;;;;;;;27.64;20.41;100757.06;2062375;28;20050;-69
2022/04/26 06:09:26;;;;;;;4.63;2.08;;;;;;;27.66;20.04;100763.78;2061959;28;20050;-69
2022/04/26 06:10:31;;;;;;;7.40;2.05;;;;;;;27.63;20.13;100758.25;2030596;29;20056;-70
2022/04/26 06:11:34;;;;;;;7.47;1.83;;;;;;;27.49;20.24;100761.75;2040070;28;20530;-69
2022/04/26 06:12:39;;;;;;;4.05;1.63;;;;;;;27.84;19.76;100761.13;2061818;28;20038;-70
2022/04/26 06:13:42;;;;;;;3.08;1.60;;;;;;;28.09;19.57;100760.34;2061661;28;20568;-70
2022/04/26 06:14:45;;;;;;;2.25;1.40;;;;;;;28.47;19.40;100758.81;2054043;28;20097;-69
2022/04/26 06:15:51;;;;;;;2.17;1.60;;;;;;;29.01;18.85;100767.06;2044585;28;20545;-67
2022/04/26 06:16:55;;;;;;;2.55;1.70;;;;;;;29.43;18.59;100762.56;2053458;28;20081;-69
2022/04/26 06:18:02;;;;;;;2.08;1.52;;;;;;;29.52;19.23;100760.13;2053800;28;20047;-70
2022/04/26 06:19:05;;;;;;;6.72;1.80;;;;;;;29.88;18.16;100754.41;2046677;28;20507;-69
2022/04/26 06:20:10;;;;;;;2.90;1.70;;;;;;;29.99;18.38;100766.22;2046992;28;20403;-69
2022/04/26 06:21:12;;;;;;;5.57;1.70;;;;;;;30.21;18.26;100758.56;2045867;28;20483;-69
2022/04/26 06:22:16;;;;;;;2.25;1.70;;;;;;;30.52;17.89;100753.94;2048952;28;20059;-69
2022/04/26 06:23:23;;;;;;;3.13;1.65;;;;;;;30.78;17.18;100754.53;2054041;28;20061;-69
2022/04/26 06:24:29;;;;;;;2.00;1.80;;;;;;;31.01;17.11;100757.44;2046220;29;20293;-70
2022/04/26 06:25:36;;;;;;;4.75;1.73;;;;;;;31.49;17.17;100748.13;2046863;28;20043;-70
2022/04/26 06:26:40;;;;;;;5.90;1.85;;;;;;;31.99;16.59;100755.78;2046299;28;20035;-70
2022/04/26 06:27:49;;;;;;;3.25;1.80;;;;;;;32.30;15.96;100752.91;2043867;28;20042;-70
2022/04/26 06:28:51;;;;;;;2.63;1.70;;;;;;;32.24;16.33;100751.81;2062218;28;20041;-68
2022/04/26 06:29:56;;;;;;;4.22;1.98;;;;;;;32.48;16.07;100761.00;2055614;28;20050;-69
2022/04/26 06:31:06;;;;;;;3.85;1.92;;;;;;;32.77;16.11;100752.91;2039032;29;20051;-70
2022/04/26 06:32:13;;;;;;;6.20;1.85;;;;;;;33.20;15.67;100754.88;2047700;28;20050;-70
2022/04/26 06:33:21;;;;;;;2.40;1.52;;;;;;;33.37;15.26;100756.50;2054349;28;20046;-69
2022/04/26 06:34:23;;;;;;;6.03;1.90;;;;;;;33.55;15.11;100758.16;2045973;29;20407;-69
2022/04/26 06:35:26;;;;;;;4.75;1.73;;;;;;;33.23;15.29;100762.38;2046315;28;20043;-69
2022/04/26 06:36:29;;;;;;;4.43;1.90;;;;;;;32.72;15.28;100758.94;2046232;28;20078;-69
2022/04/26 06:37:32;;;;;;;4.80;1.77;;;;;;;32.31;15.70;100757.25;2044554;28;20066;-69
2022/04/26 06:38:37;;;;;;;4.80;1.70;;;;;;;32.93;15.50;100758.53;2046074;28;20487;-69
2022/04/26 06:39:43;;;;;;;11.45;2.13;;;;;;;33.72;15.21;100761.75;2031109;29;20056;-69
2022/04/26 06:40:47;;;;;;;3.15;2.00;;;;;;;34.05;14.76;100755.00;2033932;28;20597;-69
2022/04/26 06:41:58;;;;;;;4.00;2.00;;;;;;;34.23;14.27;100756.56;2046743;28;20043;-69
2022/04/26 06:43:05;;;;;;;5.25;2.00;;;;;;;34.16;14.26;100763.09;2052706;28;20070;-68
2022/04/26 06:44:10;;;;;;;3.95;2.10;;;;;;;34.10;14.31;100760.06;2054741;28;20459;-69
2022/04/26 06:45:12;;;;;;;4.40;1.95;;;;;;;33.67;14.90;100760.25;2050328;28;20521;-69
2022/04/26 06:46:21;;;;;;;4.75;2.10;;;;;;;34.08;14.68;100767.28;2054179;28;20781;-69
2022/04/26 06:47:23;;;;;;;4.47;1.90;;;;;;;34.65;14.33;100770.66;2038112;29;20043;-69
2022/04/26 06:48:26;;;;;;;4.75;1.90;;;;;;;35.30;13.66;100770.47;2046803;28;20062;-68
2022/04/26 06:49:32;;;;;;;5.57;1.90;;;;;;;35.34;13.66;100764.78;2053683;28;20586;-68
2022/04/26 06:50:36;;;;;;;4.63;1.83;;;;;;;35.35;13.40;100763.56;2054374;28;20046;-70
2022/04/26 06:51:43;;;;;;;3.67;2.10;;;;;;;35.32;13.87;100762.44;2061520;28;20088;-68
2022/04/26 06:52:48;;;;;;;;;;;;;;;35.48;13.82;100765.13;2060944;28;20172;-68
2022/04/26 06:53:49;;;;;;;6.50;1.90;;;;;;;35.94;13.45;100767.72;2053692;28;19925;-68
2022/04/26 06:54:51;;;;;;;5.70;1.73;;;;;;;36.32;12.85;100770.53;2053703;28;20043;-69
2022/04/26 06:55:59;;;;;;;4.22;1.73;;;;;;;35.94;13.00;100768.53;2046518;28;20808;-70
2022/04/26 06:57:08;;;;;;;3.67;1.48;;;;;;;36.28;13.12;100771.88;2054456;28;20059;-69
2022/04/26 06:58:12;;;;;;;6.28;1.63;;;;;;;36.38;12.74;100767.91;2061857;28;20058;-69
2022/04/26 06:59:13;;;;;;;5.72;1.70;;;;;;;36.49;12.45;100773.16;2045996;28;20044;-69
2022/04/26 07:00:19;;;;;;;7.43;1.70;;;;;;;36.39;12.75;100769.50;2038648;28;20056;-69
2022/04/26 07:01:21;;;;;;;24.55;3.45;;;;;;;36.37;12.82;100771.94;2038952;28;20039;-71
2022/04/26 07:02:26;;;;;;;8.35;1.90;;;;;;;36.47;12.34;100765.19;2046056;28;20047;-71
2022/04/26 07:03:28;;;;;;;36.40;2.70;;;;;;;37.14;12.26;100777.28;2053862;28;20061;-71
2022/04/26 07:04:40;;;;;;;47.88;3.45;;;;;;;37.49;12.32;100769.59;2039200;29;20066;-70
2022/04/26 07:05:46;;;;;;;5.00;1.80;;;;;;;37.64;11.71;100769.78;2041074;28;20047;-70
2022/04/26 07:06:51;;;;;;;2.90;1.38;;;;;;;37.46;11.83;100771.28;2058745;28;20054;-69
2022/04/26 07:07:57;;;;;;;6.55;1.58;;;;;;;37.38;11.55;100777.59;2053277;28;20089;-69
2022/04/26 07:09:01;;;;;;;3.22;1.55;;;;;;;37.23;11.54;100774.53;2053922;28;20031;-70
2022/04/26 07:10:08;;;;;;;3.35;1.38;;;;;;;37.60;11.60;100769.16;2046470;28;20067;-70
2022/04/26 07:11:16;;;;;;;13.40;2.42;;;;;;;37.46;11.36;100770.50;2053394;28;20062;-70
2022/04/26 07:12:21;;;;;;;11.15;2.00;;;;;;;37.72;11.31;100779.50;2053776;28;20061;-70
2022/04/26 07:13:29;;;;;;;6.72;2.25;;;;;;;38.03;11.46;100774.66;2052347;28;20399;-71
2022/04/26 07:14:33;;;;;;;3.50;1.40;;;;;;;38.25;11.17;100782.97;2053507;28;20106;-70
2022/04/26 07:15:38;;;;;;;1.75;1.52;;;;;;;38.43;11.30;100779.44;2046414;28;20058;-70
2022/04/26 07:16:41;;;;;;;2.63;1.77;;;;;;;38.25;11.10;100779.38;2054491;28;20039;-70
2022/04/26 07:17:46;;;;;;;3.60;1.67;;;;;;;38.29;11.02;100782.81;2054198;28;20058;-68
2022/04/26 07:18:50;;;;;;;6.88;1.90;;;;;;;38.74;11.00;100781.31;2046139;28;20039;-70
2022/04/26 07:19:58;;;;;;;5.22;1.90;;;;;;;39.02;10.66;100779.28;2047728;28;20055;-68
2022/04/26 07:21:00;;;;;;;4.53;1.80;;;;;;;38.81;10.71;100780.19;2054991;28;20049;-69
2022/04/26 07:22:05;;;;;;;2.47;1.70;;;;;;;38.82;10.93;100771.31;2061640;28;20370;-68
2022/04/26 07:23:09;;;;;;;4.65;1.80;;;;;;;38.63;10.97;100786.63;2062708;28;20058;-69
2022/04/26 07:24:16;;;;;;;2.20;1.80;;;;;;;38.72;10.77;100784.59;2062830;28;20579;-69
2022/04/26 07:25:20;;;;;;;4.50;1.70;;;;;;;38.90;10.94;100780.22;2061459;28;20061;-69
2022/04/26 07:26:25;;;;;;;2.17;1.60;;;;;;;39.10;10.86;100788.19;2054113;28;20046;-68
2022/04/26 07:27:32;;;;;;;5.20;1.73;;;;;;;39.22;10.76;100786.44;2046365;28;20051;-71
2022/04/26 07:28:38;;;;;;;2.88;1.70;;;;;;;39.32;10.77;100791.59;2048875;28;20051;-70
2022/04/26 07:29:45;;;;;;;2.28;1.75;;;;;;;39.45;10.57;100793.44;2053565;28;20042;-70
2022/04/26 07:30:49;;;;;;;2.03;1.55;;;;;;;39.46;10.42;100789.38;2053669;28;20046;-67
2022/04/26 07:31:55;;;;;;;2.38;1.70;;;;;;;39.40;10.61;100792.03;2054162;28;20452;-68
2022/04/26 07:34:24;;;;;;;4.50;1.85;;;;;;;39.92;10.43;100789.22;2062354;28;20425;-70
2022/04/26 07:35:28;;;;;;;2.20;1.80;;;;;;;39.72;10.32;100796.16;2061625;28;20057;-68
2022/04/26 07:36:34;;;;;;;2.35;1.75;;;;;;;39.73;10.72;100794.94;2054266;28;20043;-69
2022/04/26 07:37:42;;;;;;;3.40;1.88;;;;;;;39.93;10.20;100793.56;2050850;28;20055;-67
2022/04/26 07:38:44;;;;;;;4.05;1.83;;;;;;;40.20;10.46;100793.47;2061206;28;20046;-68
2022/04/26 07:39:51;;;;;;;1.83;1.60;;;;;;;40.23;9.74;100788.88;2061798;28;20058;-68
2022/04/26 07:40:53;;;;;;;3.25;1.60;;;;;;;40.36;10.20;100795.06;2053333;28;20042;-70
2022/04/26 07:41:54;;;;;;;3.17;1.55;;;;;;;40.12;10.02;100799.88;2053484;28;20050;-70
2022/04/26 07:43:03;;;;;;;1.98;1.67;;;;;;;39.97;9.82;100802.63;2055880;28;20041;-70
2022/04/26 07:44:06;;;;;;;2.90;1.90;;;;;;;39.67;10.34;100794.00;2053997;28;20129;-69
2022/04/26 07:45:16;;;;;;;3.65;1.77;;;;;;;39.83;10.71;100796.44;2050028;28;20053;-72
2022/04/26 07:46:21;;;;;;;1.70;1.60;;;;;;;40.24;10.53;100801.72;2049021;28;20035;-70
2022/04/26 07:47:26;;;;;;;3.92;1.70;;;;;;;40.28;10.40;100800.28;2054078;28;20050;-74
2022/04/26 07:48:30;;;;;;;1.85;1.40;;;;;;;40.07;10.12;100806.94;2053888;28;20072;-72
2022/04/26 07:49:36;;;;;;;1.80;1.30;;;;;;;39.66;9.95;100809.28;2045602;28;20780;-72
2022/04/26 07:50:39;;;;;;;3.38;1.48;;;;;;;38.42;9.71;100816.41;2048978;28;20349;-69
2022/04/26 07:51:43;;;;;;;1.95;1.10;;;;;;;37.93;9.87;100809.56;2056229;28;20054;-69
2022/04/26 07:52:48;;;;;;;2.95;1.48;;;;;;;38.02;10.42;100812.41;2061769;28;20482;-71
2022/04/26 07:53:52;;;;;;;4.55;1.30;;;;;;;38.03;10.03;100813.19;2049913;28;20063;-68
2022/04/26 07:54:55;;;;;;;2.78;1.25;;;;;;;37.77;10.04;100812.56;2054805;28;20054;-70
2022/04/26 07:55:57;;;;;;;2.55;1.38;;;;;;;36.85;10.83;100811.94;2054745;28;20097;-70
2022/04/26 07:57:00;;;;;;;4.53;1.45;;;;;;;36.23;11.15;100811.63;2047479;28;20399;-70
2022/04/26 07:58:02;;;;;;;1.52;1.13;;;;;;;36.02;11.27;100819.47;2054693;28;20054;-71
2022/04/26 07:59:07;;;;;;;4.30;1.42;;;;;;;35.66;10.74;100817.78;2053702;28;20050;-70
2022/04/26 08:00:09;;;;;;;2.03;1.30;;;;;;;35.46;10.68;100819.94;2048257;28;20055;-70
2022/04/26 08:01:18;;;;;;;2.00;1.35;;;;;;;34.28;11.33;100825.81;2063084;28;20802;-70
2022/04/26 08:02:22;;;;;;;6.70;1.58;;;;;;;32.88;12.42;100817.53;2055324;28;20057;-70
2022/04/26 08:03:26;;;;;;;3.40;1.40;;;;;;;32.93;12.30;100822.59;2054644;28;20059;-69
2022/04/26 08:04:32;;;;;;;1.48;1.30;;;;;;;32.54;12.29;100821.31;2055697;28;20054;-70
2022/04/26 08:05:34;;;;;;;2.15;1.40;;;;;;;32.10;13.02;100813.25;2055003;28;20786;-70
2022/04/26 08:06:37;;;;;;;6.70;1.50;;;;;;;32.23;13.30;100819.81;2055266;28;20058;-70
2022/04/26 08:07:42;;;;;;;3.80;1.48;;;;;;;32.64;13.08;100818.78;2043911;28;20172;-70
2022/04/26 08:08:45;;;;;;;2.95;1.30;;;;;;;32.89;13.07;100819.09;2038470;29;20073;-70
2022/04/26 08:09:49;;;;;;;4.82;1.20;;;;;;;32.91;12.71;100815.88;2046053;28;20050;-69
2022/04/26 08:10:55;;;;;;;2.03;1.23;;;;;;;33.03;12.89;100828.44;2059888;28;20042;-70
2022/04/26 08:11:59;;;;;;;2.50;1.20;;;;;;;32.59;12.47;100822.81;2050614;28;20067;-69
2022/04/26 08:13:04;;;;;;;1.30;1.20;;;;;;;32.27;12.83;100820.53;2038801;29;20047;-69
2022/04/26 08:14:09;;;;;;;2.83;1.83;;;;;;;32.18;12.27;100825.84;2034197;28;20067;-70
2022/04/26 08:15:14;;;;;;;3.40;1.27;;;;;;;31.25;13.34;100832.56;2039821;28;20044;-71
2022/04/26 08:16:18;;;;;;;2.90;1.10;;;;;;;30.77;13.45;100825.06;2034230;29;20051;-71
2022/04/26 08:17:30;;;;;;;1.30;1.17;;;;;;;28.79;14.80;100824.41;2042865;28;20040;-71
2022/04/26 08:18:37;;;;;;;2.55;1.08;;;;;;;27.43;15.45;100832.38;2062994;28;20046;-71
2022/04/26 08:19:39;;;;;;;4.53;1.30;;;;;;;26.18;16.63;100836.88;2064810;28;20085;-70
2022/04/26 08:20:45;;;;;;;2.35;1.20;;;;;;;25.22;18.44;100833.69;2055459;28;20054;-70
2022/04/26 08:21:52;;;;;;;1.15;1.02;;;;;;;25.09;18.41;100835.81;2048376;28;20561;-70
2022/04/26 08:22:57;;;;;;;2.75;1.20;;;;;;;24.67;19.51;100848.53;2039960;29;20059;-72
2022/04/26 08:28:09;;;;;;;1.30;1.20;;;;;;;22.59;20.33;100842.50;2049827;28;20051;-72
2022/04/26 08:29:14;;;;;;;1.40;1.30;;;;;;;22.41;21.04;100845.59;2060108;28;20691;-71
2022/04/26 08:30:19;;;;;;;6.30;1.60;;;;;;;22.87;20.96;100845.16;2055031;28;20066;-71
2022/04/26 08:31:21;;;;;;;1.95;1.30;;;;;;;23.06;20.26;100849.97;2047922;28;20055;-72
2022/04/26 08:32:27;;;;;;;1.92;1.67;;;;;;;23.12;20.40;100843.84;2039992;29;20090;-71
2022/04/26 08:33:30;;;;;;;1.20;1.10;;;;;;;23.28;20.39;100851.25;2050916;28;20051;-71
2022/04/26 08:34:32;;;;;;;2.65;1.25;;;;;;;23.70;19.77;100843.16;2047103;28;20771;-71
2022/04/26 08:35:35;;;;;;;4.72;1.50;;;;;;;24.04;20.02;100843.44;2047532;28;20059;-69
2022/04/26 08:36:40;;;;;;;2.25;1.23;;;;;;;24.29;19.13;100844.69;2054919;28;20053;-70
2022/04/26 08:37:43;;;;;;;1.45;1.02;;;;;;;24.78;19.39;100845.16;2041064;28;20078;-70
2022/04/26 08:38:45;;;;;;;7.40;1.40;;;;;;;25.06;18.86;100844.81;2038890;28;20061;-70
2022/04/26 08:39:51;;;;;;;2.03;1.20;;;;;;;24.65;18.34;100852.81;2047067;28;20795;-69
2022/04/26 08:40:54;;;;;;;4.35;1.75;;;;;;;24.54;19.00;100849.09;2047729;28;20054;-70
2022/04/26 08:42:00;;;;;;;3.67;1.70;;;;;;;24.56;19.00;100846.75;2032146;29;20039;-70
2022/04/26 08:43:04;;;;;;;1.60;1.15;;;;;;;24.27;18.62;100846.22;2040526;28;20059;-69
2022/04/26 08:44:13;;;;;;;2.30;1.20;;;;;;;23.73;18.93;100855.38;2058349;28;20057;-70
2022/04/26 08:45:21;;;;;;;3.95;1.33;;;;;;;23.38;19.09;100849.88;2061267;28;20050;-69
2022/04/26 08:50:59;;;;;;;1.70;1.20;;;;;;;23.03;20.48;100845.19;2054545;28;20858;-70